sensor_id;sensor_type;location;lat;lon;timestamp;temperature;humidity
8313;DHT22;4194;43.408;24.626;2022-10-26T00:02:27;16.10;99.90
8313;DHT22;4194;43.408;24.626;2022-10-26T00:04:52;16.20;99.90
8313;DHT22;4194;43.408;24.626;2022-10-26T00:09:44;14.90;99.90
8313;DHT22;4194;43.408;24.626;2022-10-26T00:12:10;17.50;99.90
8313;DHT22;4194;43.408;24.626;2022-10-26T00:17:01;15.90;99.90
8313;DHT22;4194;43.408;24.626;2022-10-26T00:19:27;16.20;99.90
8313;DHT22;4194;43.408;24.626;2022-10-26T00:21:53;15.50;99.90
8313;DHT22;4194;43.408;24.626;2022-10-26T00:24:18;16.10;99.90
8313;DHT22;4194;43.408;24.626;2022-10-26T00:26:44;15.70;99.90
8313;DHT22;4194;43.408;24.626;2022-10-26T00:29:11;17.50;99.90
8313;DHT22;4194;43.408;24.626;2022-10-26T00:31:38;16.20;99.90
8313;DHT22;4194;43.408;24.626;2022-10-26T00:34:04;15.30;99.90
8313;DHT22;4194;43.408;24.626;2022-10-26T00:36:30;16.20;99.90
8313;DHT22;4194;43.408;24.626;2022-10-26T00:38:56;16.50;99.90
8313;DHT22;4194;43.408;24.626;2022-10-26T00:41:28;16.20;99.90
8313;DHT22;4194;43.408;24.626;2022-10-26T00:43:54;16.10;99.90
8313;DHT22;4194;43.408;24.626;2022-10-26T00:48:51;16.40;99.90
8313;DHT22;4194;43.408;24.626;2022-10-26T00:53:52;16.00;99.90
8313;DHT22;4194;43.408;24.626;2022-10-26T00:56:19;14.60;99.90
8313;DHT22;4194;43.408;24.626;2022-10-26T00:58:45;16.60;99.90
8313;DHT22;4194;43.408;24.626;2022-10-26T01:01:11;15.10;99.90
8313;DHT22;4194;43.408;24.626;2022-10-26T01:03:37;16.40;99.90
8313;DHT22;4194;43.408;24.626;2022-10-26T01:06:04;14.50;99.90
8313;DHT22;4194;43.408;24.626;2022-10-26T01:08:31;15.60;99.90
8313;DHT22;4194;43.408;24.626;2022-10-26T01:10:57;15.90;99.90
8313;DHT22;4194;43.408;24.626;2022-10-26T01:13:27;15.00;99.90
8313;DHT22;4194;43.408;24.626;2022-10-26T01:16:13;15.80;99.90
8313;DHT22;4194;43.408;24.626;2022-10-26T01:21:40;15.80;99.90
8313;DHT22;4194;43.408;24.626;2022-10-26T01:32:26;15.60;99.90
8313;DHT22;4194;43.408;24.626;2022-10-26T01:35:11;16.00;99.90
8313;DHT22;4194;43.408;24.626;2022-10-26T01:37:47;15.70;99.90
8313;DHT22;4194;43.408;24.626;2022-10-26T01:40:42;16.50;99.90
8313;DHT22;4194;43.408;24.626;2022-10-26T01:43:12;15.40;99.90
8313;DHT22;4194;43.408;24.626;2022-10-26T01:45:40;15.60;99.90
8313;DHT22;4194;43.408;24.626;2022-10-26T01:48:09;16.40;99.90
8313;DHT22;4194;43.408;24.626;2022-10-26T01:50:38;16.10;99.90
8313;DHT22;4194;43.408;24.626;2022-10-26T01:53:04;15.50;99.90
8313;DHT22;4194;43.408;24.626;2022-10-26T01:55:44;15.50;99.90
8313;DHT22;4194;43.408;24.626;2022-10-26T01:58:41;15.80;99.90
8313;DHT22;4194;43.408;24.626;2022-10-26T02:01:16;15.50;99.90
8313;DHT22;4194;43.408;24.626;2022-10-26T02:06:50;15.50;99.90
8313;DHT22;4194;43.408;24.626;2022-10-26T02:09:43;16.00;99.90
8313;DHT22;4194;43.408;24.626;2022-10-26T02:12:20;16.30;99.90
8313;DHT22;4194;43.408;24.626;2022-10-26T02:15:05;14.80;99.90
8313;DHT22;4194;43.408;24.626;2022-10-26T02:17:50;14.20;99.90
8313;DHT22;4194;43.408;24.626;2022-10-26T02:20:26;15.40;99.90
8313;DHT22;4194;43.408;24.626;2022-10-26T02:22:54;16.50;99.90
8313;DHT22;4194;43.408;24.626;2022-10-26T02:25:23;15.30;99.90
8313;DHT22;4194;43.408;24.626;2022-10-26T02:27:54;14.30;99.90
8313;DHT22;4194;43.408;24.626;2022-10-26T02:30:21;15.30;99.90
8313;DHT22;4194;43.408;24.626;2022-10-26T02:32:52;14.10;99.90
8313;DHT22;4194;43.408;24.626;2022-10-26T02:35:22;15.50;99.90
8313;DHT22;4194;43.408;24.626;2022-10-26T02:37:51;16.10;99.90
8313;DHT22;4194;43.408;24.626;2022-10-26T02:40:21;15.10;99.90
8313;DHT22;4194;43.408;24.626;2022-10-26T02:42:50;16.10;99.90
8313;DHT22;4194;43.408;24.626;2022-10-26T02:45:20;16.20;99.90
8313;DHT22;4194;43.408;24.626;2022-10-26T02:47:47;15.60;99.90
8313;DHT22;4194;43.408;24.626;2022-10-26T02:50:13;15.60;99.90
8313;DHT22;4194;43.408;24.626;2022-10-26T02:55:35;15.80;99.90
8313;DHT22;4194;43.408;24.626;2022-10-26T02:58:10;15.50;99.90
8313;DHT22;4194;43.408;24.626;2022-10-26T03:00:37;15.00;99.90
8313;DHT22;4194;43.408;24.626;2022-10-26T03:05:31;15.00;99.90
8313;DHT22;4194;43.408;24.626;2022-10-26T03:07:59;15.40;99.90
8313;DHT22;4194;43.408;24.626;2022-10-26T03:10:25;14.90;99.90
8313;DHT22;4194;43.408;24.626;2022-10-26T03:12:51;15.70;99.90
8313;DHT22;4194;43.408;24.626;2022-10-26T03:15:17;14.50;99.90
8313;DHT22;4194;43.408;24.626;2022-10-26T03:17:43;14.30;99.90
8313;DHT22;4194;43.408;24.626;2022-10-26T03:20:11;14.70;99.90
8313;DHT22;4194;43.408;24.626;2022-10-26T03:22:37;14.50;99.90
8313;DHT22;4194;43.408;24.626;2022-10-26T03:25:03;14.80;99.90
8313;DHT22;4194;43.408;24.626;2022-10-26T03:27:29;14.60;99.90
8313;DHT22;4194;43.408;24.626;2022-10-26T03:29:54;14.50;99.90
8313;DHT22;4194;43.408;24.626;2022-10-26T03:32:20;14.20;99.90
8313;DHT22;4194;43.408;24.626;2022-10-26T03:34:46;14.20;99.90
8313;DHT22;4194;43.408;24.626;2022-10-26T03:37:11;14.30;99.90
8313;DHT22;4194;43.408;24.626;2022-10-26T03:39:37;14.20;99.90
8313;DHT22;4194;43.408;24.626;2022-10-26T03:42:03;14.40;99.90
8313;DHT22;4194;43.408;24.626;2022-10-26T03:44:28;14.20;99.90
8313;DHT22;4194;43.408;24.626;2022-10-26T03:46:54;14.30;99.90
8313;DHT22;4194;43.408;24.626;2022-10-26T03:49:20;14.00;99.90
8313;DHT22;4194;43.408;24.626;2022-10-26T03:51:45;14.50;99.90
8313;DHT22;4194;43.408;24.626;2022-10-26T03:54:11;13.90;99.90
8313;DHT22;4194;43.408;24.626;2022-10-26T03:56:37;14.40;99.90
8313;DHT22;4194;43.408;24.626;2022-10-26T03:59:03;13.80;99.90
8313;DHT22;4194;43.408;24.626;2022-10-26T04:01:28;13.50;99.90
8313;DHT22;4194;43.408;24.626;2022-10-26T04:03:54;13.10;99.90
8313;DHT22;4194;43.408;24.626;2022-10-26T04:06:20;14.40;99.90
8313;DHT22;4194;43.408;24.626;2022-10-26T04:08:45;12.90;99.90
8313;DHT22;4194;43.408;24.626;2022-10-26T04:11:11;13.60;99.90
8313;DHT22;4194;43.408;24.626;2022-10-26T04:13:37;13.70;99.90
8313;DHT22;4194;43.408;24.626;2022-10-26T04:16:03;13.60;99.90
8313;DHT22;4194;43.408;24.626;2022-10-26T04:18:28;13.90;99.90
8313;DHT22;4194;43.408;24.626;2022-10-26T04:23:21;14.40;99.90
8313;DHT22;4194;43.408;24.626;2022-10-26T04:25:46;14.40;99.90
8313;DHT22;4194;43.408;24.626;2022-10-26T04:28:13;12.80;99.90
8313;DHT22;4194;43.408;24.626;2022-10-26T04:33:05;13.70;99.90
8313;DHT22;4194;43.408;24.626;2022-10-26T04:35:31;13.90;99.90
8313;DHT22;4194;43.408;24.626;2022-10-26T04:38:02;13.00;99.90
8313;DHT22;4194;43.408;24.626;2022-10-26T04:40:28;13.10;99.90
8313;DHT22;4194;43.408;24.626;2022-10-26T04:42:56;12.60;99.90
8313;DHT22;4194;43.408;24.626;2022-10-26T04:48:04;13.10;99.90
8313;DHT22;4194;43.408;24.626;2022-10-26T04:50:31;11.90;99.90
8313;DHT22;4194;43.408;24.626;2022-10-26T04:52:56;14.10;99.90
8313;DHT22;4194;43.408;24.626;2022-10-26T04:55:22;13.60;99.90
8313;DHT22;4194;43.408;24.626;2022-10-26T05:00:40;12.80;99.90
8313;DHT22;4194;43.408;24.626;2022-10-26T05:03:06;12.80;99.90
8313;DHT22;4194;43.408;24.626;2022-10-26T05:05:34;12.20;99.90
8313;DHT22;4194;43.408;24.626;2022-10-26T05:08:00;13.20;99.90
8313;DHT22;4194;43.408;24.626;2022-10-26T05:10:27;13.90;99.90
8313;DHT22;4194;43.408;24.626;2022-10-26T05:12:54;14.10;99.90
8313;DHT22;4194;43.408;24.626;2022-10-26T05:15:20;13.60;99.90
8313;DHT22;4194;43.408;24.626;2022-10-26T05:17:50;14.30;99.90
8313;DHT22;4194;43.408;24.626;2022-10-26T05:20:18;13.10;99.90
8313;DHT22;4194;43.408;24.626;2022-10-26T05:22:51;14.10;99.90
8313;DHT22;4194;43.408;24.626;2022-10-26T05:25:17;14.40;99.90
8313;DHT22;4194;43.408;24.626;2022-10-26T05:27:43;13.20;99.90
8313;DHT22;4194;43.408;24.626;2022-10-26T05:30:09;12.40;99.90
8313;DHT22;4194;43.408;24.626;2022-10-26T05:35:01;13.30;99.90
8313;DHT22;4194;43.408;24.626;2022-10-26T05:37:29;13.70;99.90
8313;DHT22;4194;43.408;24.626;2022-10-26T05:39:56;13.50;99.90
8313;DHT22;4194;43.408;24.626;2022-10-26T05:42:22;13.30;99.90
8313;DHT22;4194;43.408;24.626;2022-10-26T05:47:13;14.10;99.90
8313;DHT22;4194;43.408;24.626;2022-10-26T05:49:39;12.70;99.90
8313;DHT22;4194;43.408;24.626;2022-10-26T05:52:05;13.90;99.90
8313;DHT22;4194;43.408;24.626;2022-10-26T05:54:31;14.70;99.90
8313;DHT22;4194;43.408;24.626;2022-10-26T05:56:57;14.20;99.90
8313;DHT22;4194;43.408;24.626;2022-10-26T05:59:23;13.90;99.90
8313;DHT22;4194;43.408;24.626;2022-10-26T06:04:43;14.70;99.90
8313;DHT22;4194;43.408;24.626;2022-10-26T06:07:17;14.20;99.90
8313;DHT22;4194;43.408;24.626;2022-10-26T06:09:46;14.50;99.90
8313;DHT22;4194;43.408;24.626;2022-10-26T06:12:13;14.40;99.90
8313;DHT22;4194;43.408;24.626;2022-10-26T06:14:39;14.20;99.90
8313;DHT22;4194;43.408;24.626;2022-10-26T06:20:16;13.90;99.90
8313;DHT22;4194;43.408;24.626;2022-10-26T06:29:07;15.90;99.90
8313;DHT22;4194;43.408;24.626;2022-10-26T06:31:28;15.20;99.90
8313;DHT22;4194;43.408;24.626;2022-10-26T06:33:58;15.30;99.90
8313;DHT22;4194;43.408;24.626;2022-10-26T06:36:26;16.10;99.90
8313;DHT22;4194;43.408;24.626;2022-10-26T06:39:02;15.40;99.90
8313;DHT22;4194;43.408;24.626;2022-10-26T06:41:31;15.40;99.90
8313;DHT22;4194;43.408;24.626;2022-10-26T06:43:57;15.60;99.90
8313;DHT22;4194;43.408;24.626;2022-10-26T06:52:11;16.70;99.90
8313;DHT22;4194;43.408;24.626;2022-10-26T06:54:50;15.60;99.90
8313;DHT22;4194;43.408;24.626;2022-10-26T06:57:21;16.90;99.90
8313;DHT22;4194;43.408;24.626;2022-10-26T06:59:59;16.00;99.90
8313;DHT22;4194;43.408;24.626;2022-10-26T07:02:26;16.20;99.90
8313;DHT22;4194;43.408;24.626;2022-10-26T07:04:52;16.00;99.90
8313;DHT22;4194;43.408;24.626;2022-10-26T07:07:23;15.00;99.90
8313;DHT22;4194;43.408;24.626;2022-10-26T07:09:50;17.20;99.90
8313;DHT22;4194;43.408;24.626;2022-10-26T07:12:16;15.80;99.90
8313;DHT22;4194;43.408;24.626;2022-10-26T07:14:42;17.20;99.90
8313;DHT22;4194;43.408;24.626;2022-10-26T07:17:08;17.00;99.90
8313;DHT22;4194;43.408;24.626;2022-10-26T07:19:34;16.90;99.90
8313;DHT22;4194;43.408;24.626;2022-10-26T07:22:00;16.20;99.90
8313;DHT22;4194;43.408;24.626;2022-10-26T07:24:29;16.00;99.90
8313;DHT22;4194;43.408;24.626;2022-10-26T07:26:56;16.00;99.90
8313;DHT22;4194;43.408;24.626;2022-10-26T07:29:23;16.80;99.90
8313;DHT22;4194;43.408;24.626;2022-10-26T07:31:50;17.00;99.90
8313;DHT22;4194;43.408;24.626;2022-10-26T07:34:16;16.50;99.90
8313;DHT22;4194;43.408;24.626;2022-10-26T07:36:42;17.10;99.90
8313;DHT22;4194;43.408;24.626;2022-10-26T07:39:07;18.50;99.90
8313;DHT22;4194;43.408;24.626;2022-10-26T07:41:33;18.40;99.90
8313;DHT22;4194;43.408;24.626;2022-10-26T07:43:59;16.80;99.90
8313;DHT22;4194;43.408;24.626;2022-10-26T07:46:25;17.70;99.90
8313;DHT22;4194;43.408;24.626;2022-10-26T07:48:51;18.40;99.90
8313;DHT22;4194;43.408;24.626;2022-10-26T07:51:17;17.50;99.90
8313;DHT22;4194;43.408;24.626;2022-10-26T07:53:42;17.60;99.90
8313;DHT22;4194;43.408;24.626;2022-10-26T07:56:09;17.90;99.90
8313;DHT22;4194;43.408;24.626;2022-10-26T07:58:35;18.50;99.90
8313;DHT22;4194;43.408;24.626;2022-10-26T08:01:09;17.50;99.90
8313;DHT22;4194;43.408;24.626;2022-10-26T08:03:35;17.10;99.90
8313;DHT22;4194;43.408;24.626;2022-10-26T08:06:01;17.40;99.90
8313;DHT22;4194;43.408;24.626;2022-10-26T08:08:28;17.50;99.90
8313;DHT22;4194;43.408;24.626;2022-10-26T08:10:58;17.00;99.90
8313;DHT22;4194;43.408;24.626;2022-10-26T08:13:24;17.80;99.90
8313;DHT22;4194;43.408;24.626;2022-10-26T08:15:58;18.00;99.90
8313;DHT22;4194;43.408;24.626;2022-10-26T08:18:25;18.40;99.90
8313;DHT22;4194;43.408;24.626;2022-10-26T08:20:51;17.90;99.70
8313;DHT22;4194;43.408;24.626;2022-10-26T08:23:17;17.70;99.50
8313;DHT22;4194;43.408;24.626;2022-10-26T08:25:43;18.80;99.50
8313;DHT22;4194;43.408;24.626;2022-10-26T08:28:08;18.50;98.80
8313;DHT22;4194;43.408;24.626;2022-10-26T08:33:02;18.10;98.10
8313;DHT22;4194;43.408;24.626;2022-10-26T08:35:28;18.50;97.90
8313;DHT22;4194;43.408;24.626;2022-10-26T08:37:54;18.20;97.10
8313;DHT22;4194;43.408;24.626;2022-10-26T08:40:32;18.50;97.00
8313;DHT22;4194;43.408;24.626;2022-10-26T08:43:21;18.30;97.20
8313;DHT22;4194;43.408;24.626;2022-10-26T08:45:58;18.40;96.20
8313;DHT22;4194;43.408;24.626;2022-10-26T08:48:31;18.70;96.00
8313;DHT22;4194;43.408;24.626;2022-10-26T08:51:06;18.60;96.20
8313;DHT22;4194;43.408;24.626;2022-10-26T08:53:42;18.60;95.10
8313;DHT22;4194;43.408;24.626;2022-10-26T08:56:34;18.80;95.20
8313;DHT22;4194;43.408;24.626;2022-10-26T08:59:34;19.80;95.30
8313;DHT22;4194;43.408;24.626;2022-10-26T09:02:00;19.00;94.40
8313;DHT22;4194;43.408;24.626;2022-10-26T09:04:28;19.10;93.80
8313;DHT22;4194;43.408;24.626;2022-10-26T09:09:33;19.70;93.10
8313;DHT22;4194;43.408;24.626;2022-10-26T09:14:54;19.20;91.60
8313;DHT22;4194;43.408;24.626;2022-10-26T09:17:41;19.30;91.60
8313;DHT22;4194;43.408;24.626;2022-10-26T09:20:43;18.80;90.90
8313;DHT22;4194;43.408;24.626;2022-10-26T09:25:41;19.60;91.70
8313;DHT22;4194;43.408;24.626;2022-10-26T09:28:17;20.30;90.80
8313;DHT22;4194;43.408;24.626;2022-10-26T09:30:47;18.90;89.50
8313;DHT22;4194;43.408;24.626;2022-10-26T09:33:23;19.80;88.90
8313;DHT22;4194;43.408;24.626;2022-10-26T09:36:01;19.80;86.60
8313;DHT22;4194;43.408;24.626;2022-10-26T09:38:30;20.40;87.60
8313;DHT22;4194;43.408;24.626;2022-10-26T09:46:49;21.10;79.90
8313;DHT22;4194;43.408;24.626;2022-10-26T09:49:17;22.90;78.50
8313;DHT22;4194;43.408;24.626;2022-10-26T09:51:45;22.80;76.50
8313;DHT22;4194;43.408;24.626;2022-10-26T09:54:17;23.00;74.90
8313;DHT22;4194;43.408;24.626;2022-10-26T09:56:45;23.60;74.10
8313;DHT22;4194;43.408;24.626;2022-10-26T09:59:13;23.60;72.20
8313;DHT22;4194;43.408;24.626;2022-10-26T10:01:40;22.80;69.90
8313;DHT22;4194;43.408;24.626;2022-10-26T10:06:41;24.00;70.20
8313;DHT22;4194;43.408;24.626;2022-10-26T10:09:33;24.30;67.80
8313;DHT22;4194;43.408;24.626;2022-10-26T10:12:00;25.40;68.20
8313;DHT22;4194;43.408;24.626;2022-10-26T10:14:28;24.00;65.80
8313;DHT22;4194;43.408;24.626;2022-10-26T10:17:00;25.10;65.20
8313;DHT22;4194;43.408;24.626;2022-10-26T10:19:30;25.20;64.40
8313;DHT22;4194;43.408;24.626;2022-10-26T10:21:58;25.30;64.90
8313;DHT22;4194;43.408;24.626;2022-10-26T10:29:25;25.20;59.90
8313;DHT22;4194;43.408;24.626;2022-10-26T10:31:56;25.90;59.50
8313;DHT22;4194;43.408;24.626;2022-10-26T10:34:22;27.00;58.80
8313;DHT22;4194;43.408;24.626;2022-10-26T10:36:48;26.80;58.20
8313;DHT22;4194;43.408;24.626;2022-10-26T10:39:40;26.80;58.40
8313;DHT22;4194;43.408;24.626;2022-10-26T10:42:25;27.40;57.70
8313;DHT22;4194;43.408;24.626;2022-10-26T10:44:55;26.80;57.10
8313;DHT22;4194;43.408;24.626;2022-10-26T10:47:23;27.90;56.50
8313;DHT22;4194;43.408;24.626;2022-10-26T10:49:55;28.40;55.70
8313;DHT22;4194;43.408;24.626;2022-10-26T10:52:24;28.50;55.30
8313;DHT22;4194;43.408;24.626;2022-10-26T10:54:56;28.70;54.10
8313;DHT22;4194;43.408;24.626;2022-10-26T10:57:38;29.40;54.10
8313;DHT22;4194;43.408;24.626;2022-10-26T11:00:10;28.30;52.40
8313;DHT22;4194;43.408;24.626;2022-10-26T11:06:10;28.60;53.90
8313;DHT22;4194;43.408;24.626;2022-10-26T11:08:53;28.20;53.70
8313;DHT22;4194;43.408;24.626;2022-10-26T11:16:48;29.50;52.20
8313;DHT22;4194;43.408;24.626;2022-10-26T11:21:37;30.70;48.90
8313;DHT22;4194;43.408;24.626;2022-10-26T11:26:54;31.20;47.60
8313;DHT22;4194;43.408;24.626;2022-10-26T11:29:46;31.60;46.40
8313;DHT22;4194;43.408;24.626;2022-10-26T11:32:22;31.30;45.50
8313;DHT22;4194;43.408;24.626;2022-10-26T11:37:48;32.50;43.20
8313;DHT22;4194;43.408;24.626;2022-10-26T11:40:56;34.50;42.50
8313;DHT22;4194;43.408;24.626;2022-10-26T11:43:22;34.70;40.60
8313;DHT22;4194;43.408;24.626;2022-10-26T11:54:04;35.90;37.90
8313;DHT22;4194;43.408;24.626;2022-10-26T11:56:37;37.00;37.50
8313;DHT22;4194;43.408;24.626;2022-10-26T11:59:05;37.20;36.80
8313;DHT22;4194;43.408;24.626;2022-10-26T12:01:33;37.10;36.40
8313;DHT22;4194;43.408;24.626;2022-10-26T12:04:00;37.50;36.00
8313;DHT22;4194;43.408;24.626;2022-10-26T12:06:30;38.10;35.60
8313;DHT22;4194;43.408;24.626;2022-10-26T12:09:14;40.00;35.40
8313;DHT22;4194;43.408;24.626;2022-10-26T12:11:49;40.70;33.20
8313;DHT22;4194;43.408;24.626;2022-10-26T12:15:20;40.80;31.80
8313;DHT22;4194;43.408;24.626;2022-10-26T12:17:28;40.20;31.50
8313;DHT22;4194;43.408;24.626;2022-10-26T12:22:31;40.20;32.30
8313;DHT22;4194;43.408;24.626;2022-10-26T12:37:40;41.60;28.40
8313;DHT22;4194;43.408;24.626;2022-10-26T12:45:46;43.90;28.00
8313;DHT22;4194;43.408;24.626;2022-10-26T12:48:23;43.80;28.40
8313;DHT22;4194;43.408;24.626;2022-10-26T12:50:52;43.10;28.40
8313;DHT22;4194;43.408;24.626;2022-10-26T12:53:19;43.60;27.70
8313;DHT22;4194;43.408;24.626;2022-10-26T13:06:36;43.10;28.00
8313;DHT22;4194;43.408;24.626;2022-10-26T13:09:22;43.20;27.70
8313;DHT22;4194;43.408;24.626;2022-10-26T13:11:52;43.70;27.70
8313;DHT22;4194;43.408;24.626;2022-10-26T13:14:40;43.80;27.40
8313;DHT22;4194;43.408;24.626;2022-10-26T13:17:26;41.80;27.70
8313;DHT22;4194;43.408;24.626;2022-10-26T13:20:16;42.50;28.30
8313;DHT22;4194;43.408;24.626;2022-10-26T13:22:46;42.60;28.70
8313;DHT22;4194;43.408;24.626;2022-10-26T13:25:22;43.40;28.20
8313;DHT22;4194;43.408;24.626;2022-10-26T13:28:58;42.50;27.90
8313;DHT22;4194;43.408;24.626;2022-10-26T13:33:51;38.90;30.30
8313;DHT22;4194;43.408;24.626;2022-10-26T13:36:31;35.30;33.00
8313;DHT22;4194;43.408;24.626;2022-10-26T13:38:59;32.00;37.60
8313;DHT22;4194;43.408;24.626;2022-10-26T13:41:35;30.40;40.10
8313;DHT22;4194;43.408;24.626;2022-10-26T13:44:05;27.60;42.50
8313;DHT22;4194;43.408;24.626;2022-10-26T13:46:35;27.20;44.80
8313;DHT22;4194;43.408;24.626;2022-10-26T13:49:08;26.50;46.50
8313;DHT22;4194;43.408;24.626;2022-10-26T13:51:42;25.90;47.40
8313;DHT22;4194;43.408;24.626;2022-10-26T13:54:28;25.50;48.90
8313;DHT22;4194;43.408;24.626;2022-10-26T13:59:31;24.20;49.50
8313;DHT22;4194;43.408;24.626;2022-10-26T14:02:27;24.80;52.10
8313;DHT22;4194;43.408;24.626;2022-10-26T14:05:00;24.10;51.00
8313;DHT22;4194;43.408;24.626;2022-10-26T14:12:55;23.60;52.70
8313;DHT22;4194;43.408;24.626;2022-10-26T14:15:31;23.60;52.80
8313;DHT22;4194;43.408;24.626;2022-10-26T14:17:58;23.10;53.10
8313;DHT22;4194;43.408;24.626;2022-10-26T14:20:27;23.20;53.70
8313;DHT22;4194;43.408;24.626;2022-10-26T14:22:53;23.60;54.70
8313;DHT22;4194;43.408;24.626;2022-10-26T14:25:27;22.50;54.50
8313;DHT22;4194;43.408;24.626;2022-10-26T14:27:53;22.10;55.20
8313;DHT22;4194;43.408;24.626;2022-10-26T14:30:29;21.80;55.30
8313;DHT22;4194;43.408;24.626;2022-10-26T14:32:56;22.20;55.80
8313;DHT22;4194;43.408;24.626;2022-10-26T14:35:24;22.10;56.20
8313;DHT22;4194;43.408;24.626;2022-10-26T14:40:24;21.90;57.00
8313;DHT22;4194;43.408;24.626;2022-10-26T14:42:54;22.00;57.10
8313;DHT22;4194;43.408;24.626;2022-10-26T14:45:29;21.70;56.50
8313;DHT22;4194;43.408;24.626;2022-10-26T14:47:57;21.40;57.90
8313;DHT22;4194;43.408;24.626;2022-10-26T14:50:25;21.80;57.60
8313;DHT22;4194;43.408;24.626;2022-10-26T14:53:03;21.60;58.80
8313;DHT22;4194;43.408;24.626;2022-10-26T14:56:05;21.50;58.40
8313;DHT22;4194;43.408;24.626;2022-10-26T14:58:41;22.00;58.80
8313;DHT22;4194;43.408;24.626;2022-10-26T15:04:00;21.00;60.80
8313;DHT22;4194;43.408;24.626;2022-10-26T15:06:40;20.10;59.30
8313;DHT22;4194;43.408;24.626;2022-10-26T15:09:28;19.60;58.70
8313;DHT22;4194;43.408;24.626;2022-10-26T15:11:54;20.40;59.60
8313;DHT22;4194;43.408;24.626;2022-10-26T15:14:19;20.50;60.80
8313;DHT22;4194;43.408;24.626;2022-10-26T15:16:54;21.40;61.20
8313;DHT22;4194;43.408;24.626;2022-10-26T15:19:21;19.30;59.60
8313;DHT22;4194;43.408;24.626;2022-10-26T15:21:49;20.80;61.20
8313;DHT22;4194;43.408;24.626;2022-10-26T15:24:37;20.10;60.40
8313;DHT22;4194;43.408;24.626;2022-10-26T15:27:10;19.00;60.10
8313;DHT22;4194;43.408;24.626;2022-10-26T15:29:44;18.60;59.60
8313;DHT22;4194;43.408;24.626;2022-10-26T15:32:20;19.20;60.10
8313;DHT22;4194;43.408;24.626;2022-10-26T15:34:48;19.70;61.50
8313;DHT22;4194;43.408;24.626;2022-10-26T15:37:14;18.50;62.80
8313;DHT22;4194;43.408;24.626;2022-10-26T15:39:40;18.50;63.90
8313;DHT22;4194;43.408;24.626;2022-10-26T15:42:12;19.00;66.80
8313;DHT22;4194;43.408;24.626;2022-10-26T15:44:38;19.70;68.60
8313;DHT22;4194;43.408;24.626;2022-10-26T15:47:03;17.60;68.00
8313;DHT22;4194;43.408;24.626;2022-10-26T15:49:29;18.00;71.70
8313;DHT22;4194;43.408;24.626;2022-10-26T15:51:54;17.90;73.00
8313;DHT22;4194;43.408;24.626;2022-10-26T15:54:20;18.40;73.80
8313;DHT22;4194;43.408;24.626;2022-10-26T15:56:47;18.30;74.10
8313;DHT22;4194;43.408;24.626;2022-10-26T15:59:17;18.00;75.20
8313;DHT22;4194;43.408;24.626;2022-10-26T16:01:44;17.50;75.50
8313;DHT22;4194;43.408;24.626;2022-10-26T16:04:10;17.50;76.20
8313;DHT22;4194;43.408;24.626;2022-10-26T16:06:37;17.00;77.10
8313;DHT22;4194;43.408;24.626;2022-10-26T16:09:08;18.30;78.10
8313;DHT22;4194;43.408;24.626;2022-10-26T16:11:35;17.70;77.90
8313;DHT22;4194;43.408;24.626;2022-10-26T16:14:00;16.60;78.70
8313;DHT22;4194;43.408;24.626;2022-10-26T16:16:26;17.70;81.80
8313;DHT22;4194;43.408;24.626;2022-10-26T16:18:54;17.60;82.30
8313;DHT22;4194;43.408;24.626;2022-10-26T16:21:21;16.20;82.00
8313;DHT22;4194;43.408;24.626;2022-10-26T16:28:39;15.60;84.30
8313;DHT22;4194;43.408;24.626;2022-10-26T16:31:09;15.70;84.80
8313;DHT22;4194;43.408;24.626;2022-10-26T16:33:35;15.00;85.10
8313;DHT22;4194;43.408;24.626;2022-10-26T16:36:02;16.80;87.80
8313;DHT22;4194;43.408;24.626;2022-10-26T16:38:29;16.60;89.20
8313;DHT22;4194;43.408;24.626;2022-10-26T16:41:16;15.50;89.70
8313;DHT22;4194;43.408;24.626;2022-10-26T16:43:43;14.60;89.70
8313;DHT22;4194;43.408;24.626;2022-10-26T16:46:14;16.70;91.40
8313;DHT22;4194;43.408;24.626;2022-10-26T16:48:42;15.40;90.70
8313;DHT22;4194;43.408;24.626;2022-10-26T16:51:16;15.30;91.70
8313;DHT22;4194;43.408;24.626;2022-10-26T16:53:42;15.30;93.50
8313;DHT22;4194;43.408;24.626;2022-10-26T16:56:12;15.30;93.90
8313;DHT22;4194;43.408;24.626;2022-10-26T16:58:39;14.20;93.60
8313;DHT22;4194;43.408;24.626;2022-10-26T17:01:05;15.30;94.10
8313;DHT22;4194;43.408;24.626;2022-10-26T17:03:32;15.00;94.20
8313;DHT22;4194;43.408;24.626;2022-10-26T17:05:59;14.90;94.90
8313;DHT22;4194;43.408;24.626;2022-10-26T17:08:26;14.60;96.30
8313;DHT22;4194;43.408;24.626;2022-10-26T17:10:53;14.70;95.80
8313;DHT22;4194;43.408;24.626;2022-10-26T17:13:19;14.70;94.50
8313;DHT22;4194;43.408;24.626;2022-10-26T17:15:46;14.70;93.50
8313;DHT22;4194;43.408;24.626;2022-10-26T17:18:12;15.40;93.30
8313;DHT22;4194;43.408;24.626;2022-10-26T17:20:38;14.60;93.20
8313;DHT22;4194;43.408;24.626;2022-10-26T17:23:05;14.60;93.50
8313;DHT22;4194;43.408;24.626;2022-10-26T17:25:34;14.50;93.80
8313;DHT22;4194;43.408;24.626;2022-10-26T17:28:01;14.30;93.50
8313;DHT22;4194;43.408;24.626;2022-10-26T17:30:27;14.50;92.90
8313;DHT22;4194;43.408;24.626;2022-10-26T17:32:53;14.30;93.50
8313;DHT22;4194;43.408;24.626;2022-10-26T17:35:19;13.80;94.10
8313;DHT22;4194;43.408;24.626;2022-10-26T17:37:45;13.50;95.50
8313;DHT22;4194;43.408;24.626;2022-10-26T17:40:11;13.80;96.70
8313;DHT22;4194;43.408;24.626;2022-10-26T17:42:37;13.40;97.60
8313;DHT22;4194;43.408;24.626;2022-10-26T17:45:03;14.80;98.30
8313;DHT22;4194;43.408;24.626;2022-10-26T17:47:28;14.60;99.40
8313;DHT22;4194;43.408;24.626;2022-10-26T17:52:20;13.90;99.90
8313;DHT22;4194;43.408;24.626;2022-10-26T17:54:49;14.40;99.90
8313;DHT22;4194;43.408;24.626;2022-10-26T17:57:15;14.30;99.90
8313;DHT22;4194;43.408;24.626;2022-10-26T17:59:41;13.90;99.90
8313;DHT22;4194;43.408;24.626;2022-10-26T18:02:10;13.70;99.90
8313;DHT22;4194;43.408;24.626;2022-10-26T18:04:36;14.20;99.90
8313;DHT22;4194;43.408;24.626;2022-10-26T18:07:02;13.80;99.90
8313;DHT22;4194;43.408;24.626;2022-10-26T18:09:27;13.30;99.90
8313;DHT22;4194;43.408;24.626;2022-10-26T18:11:53;13.00;99.90
8313;DHT22;4194;43.408;24.626;2022-10-26T18:16:45;14.30;99.90
8313;DHT22;4194;43.408;24.626;2022-10-26T18:19:10;14.00;99.90
8313;DHT22;4194;43.408;24.626;2022-10-26T18:21:36;13.50;99.90
8313;DHT22;4194;43.408;24.626;2022-10-26T18:24:02;13.50;99.90
8313;DHT22;4194;43.408;24.626;2022-10-26T18:26:29;13.30;99.90
8313;DHT22;4194;43.408;24.626;2022-10-26T18:28:56;13.80;99.90
8313;DHT22;4194;43.408;24.626;2022-10-26T18:31:23;14.00;99.90
8313;DHT22;4194;43.408;24.626;2022-10-26T18:33:53;13.40;99.90
8313;DHT22;4194;43.408;24.626;2022-10-26T18:36:19;13.90;99.90
8313;DHT22;4194;43.408;24.626;2022-10-26T18:38:46;13.20;99.90
8313;DHT22;4194;43.408;24.626;2022-10-26T18:41:13;13.60;99.90
8313;DHT22;4194;43.408;24.626;2022-10-26T18:43:40;13.20;99.90
8313;DHT22;4194;43.408;24.626;2022-10-26T18:48:33;14.20;99.90
8313;DHT22;4194;43.408;24.626;2022-10-26T18:51:03;12.60;99.90
8313;DHT22;4194;43.408;24.626;2022-10-26T18:53:34;12.80;99.90
8313;DHT22;4194;43.408;24.626;2022-10-26T18:56:02;13.00;99.90